createdAt,value
2018-07-24T05:31:50.276Z,17.50
2018-07-24T05:34:18.860Z,17.40
2018-07-24T05:36:47.447Z,17.40
2018-07-24T05:39:17.741Z,17.60
2018-07-24T05:41:46.335Z,17.80
2018-07-24T05:44:14.875Z,18.00
2018-07-24T05:46:43.447Z,18.10
2018-07-24T05:49:12.022Z,18.10
2018-07-24T05:51:40.604Z,18.20
2018-07-24T05:54:09.133Z,18.30
2018-07-24T05:56:37.697Z,18.40
2018-07-24T05:59:06.262Z,18.60
2018-07-24T06:01:34.818Z,18.80
2018-07-24T06:06:31.671Z,18.90
2018-07-24T06:09:00.232Z,19.00
2018-07-24T06:11:29.789Z,19.10
2018-07-24T06:13:58.453Z,19.20
2018-07-24T06:16:27.063Z,19.30
2018-07-24T06:18:56.570Z,19.60
2018-07-24T06:21:25.939Z,19.60
2018-07-24T06:23:54.870Z,19.70
2018-07-24T06:26:23.438Z,19.70
2018-07-24T06:28:52.307Z,19.80
2018-07-24T06:31:20.961Z,19.90
2018-07-24T06:33:49.719Z,20.10
2018-07-24T06:36:19.261Z,20.20
2018-07-24T06:38:47.839Z,20.20
2018-07-24T06:41:16.426Z,20.40
2018-07-24T06:43:45.081Z,20.50
2018-07-24T06:46:13.715Z,20.60
2018-07-24T06:48:43.151Z,20.80
2018-07-24T06:51:11.845Z,20.90
2018-07-24T06:53:40.466Z,21.10
2018-07-24T06:56:09.710Z,21.20
2018-07-24T06:58:38.324Z,21.30
2018-07-24T07:01:07.263Z,21.60
2018-07-24T07:03:35.895Z,21.60
2018-07-24T07:06:04.603Z,21.80
2018-07-24T07:08:33.233Z,21.90
2018-07-24T07:11:02.060Z,21.80
2018-07-24T07:13:30.862Z,22.00
2018-07-24T07:15:59.543Z,22.10
2018-07-24T07:18:28.269Z,22.20
2018-07-24T07:20:57.011Z,22.10
2018-07-24T07:23:25.767Z,22.20
2018-07-24T07:25:54.418Z,22.20
2018-07-24T07:28:23.216Z,22.30
2018-07-24T07:30:51.828Z,22.60
2018-07-24T07:33:20.497Z,22.60
2018-07-24T07:35:49.062Z,22.70
2018-07-24T07:38:17.630Z,22.80
2018-07-24T07:40:46.239Z,22.80
2018-07-24T07:43:14.820Z,23.00
2018-07-24T07:45:43.371Z,23.10
2018-07-24T07:48:11.941Z,23.20
2018-07-24T07:50:40.478Z,23.60
2018-07-24T07:53:09.047Z,23.80
2018-07-24T07:55:37.609Z,23.60
2018-07-24T07:58:06.479Z,23.70
2018-07-24T08:00:35.110Z,23.70
2018-07-24T08:03:03.716Z,23.80
2018-07-24T08:05:32.299Z,23.90
2018-07-24T08:08:00.844Z,24.20
2018-07-24T08:10:29.856Z,24.20
2018-07-24T08:12:58.735Z,24.10
2018-07-24T08:15:27.384Z,24.20
2018-07-24T08:17:56.926Z,24.40
2018-07-24T08:20:25.490Z,24.40
2018-07-24T08:22:54.100Z,24.40
2018-07-24T08:25:22.707Z,24.30
2018-07-24T08:27:51.454Z,24.50
2018-07-24T08:30:21.208Z,24.60
2018-07-24T08:32:49.926Z,24.80
2018-07-24T08:35:18.512Z,24.90
2018-07-24T08:37:47.092Z,24.90
2018-07-24T08:40:15.714Z,25.10
2018-07-24T08:42:44.302Z,25.20
2018-07-24T08:45:12.910Z,25.00
2018-07-24T08:47:41.501Z,24.80
2018-07-24T08:50:10.098Z,24.90
2018-07-24T08:52:38.767Z,25.00
2018-07-24T08:55:07.496Z,25.30
2018-07-24T08:57:36.036Z,25.40
2018-07-24T09:00:04.874Z,25.30
2018-07-24T09:02:33.488Z,25.40
2018-07-24T09:05:02.113Z,25.50
2018-07-24T09:07:30.757Z,25.50
2018-07-24T09:09:59.409Z,25.60
2018-07-24T09:12:28.041Z,25.80
2018-07-24T09:14:56.635Z,25.90
2018-07-24T09:17:25.782Z,26.00
2018-07-24T09:19:55.361Z,26.20
2018-07-24T09:22:23.924Z,26.20
2018-07-24T09:24:52.525Z,26.50
2018-07-24T09:27:21.110Z,26.70
2018-07-24T09:29:49.683Z,26.60
2018-07-24T09:32:18.291Z,26.70
2018-07-24T09:34:47.731Z,26.70
2018-07-24T09:37:16.279Z,26.90
2018-07-24T09:39:44.891Z,27.00
2018-07-24T09:42:13.463Z,27.00
2018-07-24T09:44:42.019Z,27.00
2018-07-24T09:47:10.927Z,27.20
2018-07-24T09:49:40.707Z,27.30
2018-07-24T09:52:09.355Z,27.50
2018-07-24T09:54:37.960Z,27.50
2018-07-24T09:57:06.552Z,27.50
2018-07-24T09:59:35.186Z,27.70
2018-07-24T10:02:03.844Z,27.70
2018-07-24T10:04:32.424Z,27.80
2018-07-24T10:07:00.975Z,28.00
2018-07-24T10:09:29.578Z,28.00
2018-07-24T10:11:58.178Z,28.00
2018-07-24T10:14:26.761Z,28.10
2018-07-24T10:16:55.469Z,28.20
2018-07-24T10:19:24.876Z,28.40
2018-07-24T10:21:53.768Z,28.40
2018-07-24T10:24:22.402Z,28.60
2018-07-24T10:26:51.034Z,28.70
2018-07-24T10:29:35.637Z,28.60
2018-07-24T10:32:04.324Z,28.70
2018-07-24T10:34:36.843Z,28.80
2018-07-24T10:37:08.468Z,28.80
2018-07-24T10:39:37.594Z,29.00
2018-07-24T10:42:06.859Z,28.90
2018-07-24T10:44:35.788Z,29.10
2018-07-24T10:49:41.687Z,29.30
2018-07-24T10:52:13.394Z,29.50
2018-07-24T10:54:42.024Z,29.40
2018-07-24T10:57:10.967Z,29.50
2018-07-24T10:59:40.728Z,29.50
2018-07-24T11:02:10.219Z,29.50
2018-07-24T11:04:39.456Z,29.60
2018-07-24T11:07:08.405Z,29.70
2018-07-24T11:09:37.400Z,29.80
2018-07-24T11:12:06.475Z,29.70
2018-07-24T11:14:35.501Z,29.80
2018-07-24T11:17:05.220Z,29.80
2018-07-24T11:19:35.161Z,29.80
2018-07-24T11:22:04.722Z,29.90
2018-07-24T11:27:03.462Z,30.40
2018-07-24T11:29:32.092Z,30.60
2018-07-24T11:32:00.876Z,30.80
2018-07-24T11:34:29.646Z,31.10
2018-07-24T11:37:00.905Z,31.40
2018-07-24T11:39:30.123Z,31.60
2018-07-24T11:41:59.147Z,31.90
2018-07-24T11:44:27.779Z,32.00
2018-07-24T11:46:57.143Z,32.10
2018-07-24T11:49:27.521Z,32.00
2018-07-24T11:51:59.990Z,31.80
2018-07-24T11:54:28.660Z,32.10
2018-07-24T11:56:57.527Z,32.20
2018-07-24T11:59:26.860Z,32.70
2018-07-24T12:01:58.338Z,33.30
2018-07-24T12:04:27.988Z,34.10
2018-07-24T12:06:59.726Z,35.00
2018-07-24T12:09:30.841Z,35.90
2018-07-24T12:12:00.246Z,36.80
2018-07-24T12:14:32.088Z,37.60
2018-07-24T12:17:02.821Z,37.60
2018-07-24T12:19:32.103Z,38.50
2018-07-24T12:22:00.843Z,38.90
2018-07-24T12:24:29.488Z,39.60
2018-07-24T12:26:58.235Z,39.70
2018-07-24T12:29:26.864Z,40.50
2018-07-24T12:31:55.592Z,40.80
2018-07-24T12:34:24.258Z,41.20
2018-07-24T12:36:52.969Z,40.90
2018-07-24T12:39:21.641Z,40.90
2018-07-24T12:41:50.336Z,41.00
2018-07-24T12:44:19.057Z,40.40
2018-07-24T12:46:47.733Z,39.80
2018-07-24T12:49:16.335Z,39.50
2018-07-24T12:51:45.013Z,38.40
2018-07-24T12:54:13.639Z,36.70
2018-07-24T12:56:43.053Z,36.90
2018-07-24T12:59:11.639Z,36.60
2018-07-24T13:01:40.271Z,36.00
2018-07-24T13:04:08.969Z,36.10
2018-07-24T13:06:37.507Z,35.80
2018-07-24T13:09:08.652Z,35.60
2018-07-24T13:11:37.288Z,35.80
2018-07-24T13:14:06.102Z,35.90
2018-07-24T13:16:34.754Z,36.40
2018-07-24T13:19:03.399Z,36.80
2018-07-24T13:21:32.722Z,37.00
2018-07-24T13:24:02.396Z,36.60
2018-07-24T13:26:30.972Z,36.20
2018-07-24T13:29:00.589Z,36.30
2018-07-24T13:31:29.240Z,36.30
2018-07-24T13:33:58.745Z,36.20
2018-07-24T13:36:27.629Z,36.30
2018-07-24T13:38:56.536Z,36.10
2018-07-24T13:41:25.147Z,35.90
2018-07-24T13:43:53.792Z,35.50
2018-07-24T13:46:22.868Z,35.50
2018-07-24T13:48:51.443Z,35.60
2018-07-24T13:51:20.043Z,35.50
2018-07-24T13:53:49.631Z,35.50
2018-07-24T13:56:18.760Z,35.50
2018-07-24T13:58:47.361Z,35.50
2018-07-24T14:01:15.935Z,35.70
2018-07-24T14:06:13.415Z,36.50
2018-07-24T14:08:42.102Z,36.40
2018-07-24T14:11:10.684Z,36.60
2018-07-24T14:13:39.378Z,36.70
2018-07-24T14:18:42.944Z,37.30
2018-07-24T14:21:11.799Z,37.10
2018-07-24T14:23:40.399Z,36.90
2018-07-24T14:26:09.627Z,36.80
2018-07-24T14:28:38.239Z,36.10
2018-07-24T14:31:06.850Z,35.90
2018-07-24T14:33:36.376Z,36.40
2018-07-24T14:36:05.590Z,36.50
2018-07-24T14:38:34.647Z,36.40
2018-07-24T14:41:03.890Z,36.00
2018-07-24T14:43:33.355Z,35.50
2018-07-24T14:46:08.474Z,34.80
2018-07-24T14:48:37.445Z,34.20
2018-07-24T14:51:06.044Z,33.60
2018-07-24T14:53:34.902Z,33.20
2018-07-24T14:56:04.090Z,32.80
2018-07-24T14:58:33.334Z,32.90
2018-07-24T15:01:02.740Z,32.90
2018-07-24T15:03:31.359Z,32.90
2018-07-24T15:05:59.940Z,32.80
2018-07-24T15:08:29.497Z,32.70
2018-07-24T15:10:58.111Z,32.50
2018-07-24T15:13:26.699Z,32.40
2018-07-24T15:15:55.303Z,32.10
2018-07-24T15:18:23.918Z,31.70
2018-07-24T15:20:53.472Z,32.00
2018-07-24T15:23:22.067Z,32.60
2018-07-24T15:25:50.662Z,33.40
2018-07-24T15:28:19.348Z,34.00
2018-07-24T15:30:48.556Z,34.00
2018-07-24T15:33:17.370Z,34.00
2018-07-24T15:35:46.060Z,34.10
2018-07-24T15:38:14.713Z,34.00
2018-07-24T15:40:43.392Z,33.90
2018-07-24T15:43:12.113Z,33.90
2018-07-24T15:45:42.035Z,33.80
2018-07-24T15:48:12.745Z,34.10
2018-07-24T15:50:41.359Z,34.50
2018-07-24T15:53:10.971Z,34.80
2018-07-24T15:55:41.384Z,34.60
2018-07-24T15:58:10.291Z,34.50
2018-07-24T16:00:38.971Z,34.60
2018-07-24T16:03:07.562Z,34.60
2018-07-24T16:05:36.530Z,34.90
2018-07-24T16:08:05.390Z,35.20
2018-07-24T16:10:34.025Z,35.10
2018-07-24T16:13:02.623Z,35.30
2018-07-24T16:15:31.384Z,35.40
2018-07-24T16:17:59.923Z,35.40
2018-07-24T16:20:28.561Z,35.30
2018-07-24T16:22:57.702Z,35.60
2018-07-24T16:25:26.665Z,35.60
2018-07-24T16:27:55.426Z,35.30
2018-07-24T16:30:24.090Z,34.90
2018-07-24T16:32:52.691Z,34.30
2018-07-24T16:35:21.308Z,34.00
2018-07-24T16:37:50.908Z,33.70
2018-07-24T16:40:19.838Z,33.60
2018-07-24T16:42:48.399Z,33.20
2018-07-24T16:45:16.969Z,33.00
2018-07-24T16:47:45.576Z,32.70
2018-07-24T16:50:14.176Z,32.30
2018-07-24T16:52:43.726Z,31.90
2018-07-24T16:55:12.672Z,31.70
2018-07-24T16:57:41.259Z,31.40
2018-07-24T17:00:09.879Z,31.10
2018-07-24T17:02:38.516Z,30.80
2018-07-24T17:05:07.417Z,30.60
2018-07-24T17:07:35.990Z,30.40
2018-07-24T17:10:04.875Z,30.30
2018-07-24T17:12:33.458Z,30.10
2018-07-24T17:15:02.032Z,29.90
2018-07-24T17:17:30.647Z,29.70
2018-07-24T17:19:59.443Z,29.40
2018-07-24T17:22:28.922Z,29.20
2018-07-24T17:24:59.169Z,29.10
2018-07-24T17:27:27.793Z,29.20
2018-07-24T17:29:56.310Z,29.50
2018-07-24T17:32:24.929Z,29.80
2018-07-24T17:34:53.871Z,30.10
2018-07-24T17:39:50.875Z,30.30
2018-07-24T17:42:19.797Z,30.40
2018-07-24T17:44:48.534Z,30.70
2018-07-24T17:47:17.207Z,30.70
2018-07-24T17:49:45.893Z,30.70
2018-07-24T17:54:43.105Z,30.80
2018-07-24T17:57:12.840Z,30.80
2018-07-24T17:59:42.050Z,31.00
2018-07-24T18:02:10.693Z,30.90
2018-07-24T18:04:39.283Z,31.00
2018-07-24T18:07:08.241Z,31.00
2018-07-24T18:09:37.670Z,30.90
2018-07-24T18:12:06.407Z,30.90
2018-07-24T18:14:35.020Z,30.90
2018-07-24T18:17:03.704Z,30.70
2018-07-24T18:19:32.360Z,30.60
2018-07-24T18:22:00.978Z,30.40
2018-07-24T18:24:29.583Z,30.50
2018-07-24T18:26:58.194Z,30.50
2018-07-24T18:29:27.369Z,30.30
2018-07-24T18:31:56.006Z,30.10
2018-07-24T18:36:53.469Z,29.50
2018-07-24T18:39:22.073Z,29.30
2018-07-24T18:41:52.418Z,29.20
2018-07-24T18:44:21.042Z,28.90
2018-07-24T18:46:49.999Z,28.50
2018-07-24T18:49:18.599Z,28.20
2018-07-24T18:51:47.179Z,27.80
2018-07-24T18:54:15.787Z,27.50
2018-07-24T18:56:45.167Z,27.20
2018-07-24T18:59:14.679Z,27.00
2018-07-24T19:01:43.286Z,26.80
2018-07-24T19:04:13.729Z,26.60
2018-07-24T19:06:42.749Z,26.50
2018-07-24T19:09:11.940Z,26.30
2018-07-24T19:11:41.543Z,26.00
2018-07-24T19:14:10.231Z,25.80
2018-07-24T19:16:38.853Z,25.60
2018-07-24T19:19:07.411Z,25.70
2018-07-24T19:21:38.467Z,25.60
2018-07-24T19:24:08.134Z,25.50
2018-07-24T19:26:39.582Z,25.30
2018-07-24T19:29:08.163Z,25.10
2018-07-24T19:31:37.144Z,24.50
2018-07-24T19:34:05.787Z,24.20
2018-07-24T19:36:34.409Z,24.20
2018-07-24T19:39:03.263Z,24.10
2018-07-24T19:41:31.861Z,24.00
2018-07-24T19:44:00.504Z,23.90
2018-07-24T19:46:29.348Z,23.80
2018-07-24T19:49:00.997Z,23.80
2018-07-24T19:51:30.317Z,23.70
2018-07-24T19:53:59.256Z,23.70
2018-07-24T19:56:27.831Z,23.60
2018-07-24T19:58:56.422Z,23.70
2018-07-24T20:01:24.984Z,23.50
2018-07-24T20:03:53.627Z,23.50
2018-07-24T20:06:22.223Z,23.50
2018-07-24T20:08:50.824Z,23.30
2018-07-24T20:11:20.191Z,23.30
2018-07-24T20:13:49.667Z,23.20
2018-07-24T20:16:20.056Z,23.10
2018-07-24T20:18:50.699Z,23.00
2018-07-24T20:21:20.015Z,22.90
2018-07-24T20:23:48.713Z,22.90
2018-07-24T20:26:17.301Z,23.00
2018-07-24T20:28:46.016Z,23.00
2018-07-24T20:31:14.575Z,22.90
2018-07-24T20:33:43.209Z,22.80
2018-07-24T20:36:11.826Z,22.70
2018-07-24T20:38:40.693Z,22.60
2018-07-24T20:41:09.389Z,22.40
2018-07-24T20:43:38.460Z,22.30
2018-07-24T20:46:07.079Z,22.20
2018-07-24T20:48:35.688Z,22.20
2018-07-24T20:51:04.347Z,22.10
2018-07-24T20:53:33.005Z,22.20
2018-07-24T20:56:01.643Z,22.20
2018-07-24T20:58:30.239Z,22.10
2018-07-24T21:01:00.136Z,22.00
2018-07-24T21:03:28.816Z,21.80
2018-07-24T21:05:58.134Z,21.70
2018-07-24T21:08:29.148Z,21.60
2018-07-24T21:10:57.738Z,21.60
2018-07-24T21:13:27.375Z,21.60
2018-07-24T21:15:56.047Z,21.50
2018-07-24T21:18:24.743Z,21.50
2018-07-24T21:20:53.476Z,21.50
2018-07-24T21:23:23.134Z,21.60
2018-07-24T21:25:51.720Z,21.80
2018-07-24T21:28:21.383Z,21.70
2018-07-24T21:30:50.018Z,21.70
2018-07-24T21:33:19.095Z,21.70
2018-07-24T21:35:47.767Z,21.70
2018-07-24T21:38:16.514Z,21.60
2018-07-24T21:40:48.176Z,21.50
2018-07-24T21:43:18.712Z,21.50
2018-07-24T21:45:47.338Z,21.40
2018-07-24T21:48:15.971Z,21.30
2018-07-24T21:50:45.637Z,21.30
2018-07-24T21:53:14.246Z,21.30
2018-07-24T21:55:42.855Z,21.30
2018-07-24T21:58:11.577Z,21.30
2018-07-24T22:00:40.231Z,21.20
2018-07-24T22:03:09.566Z,21.10
2018-07-24T22:05:38.138Z,21.00
2018-07-24T22:08:06.987Z,21.10
2018-07-24T22:10:35.659Z,21.00
2018-07-24T22:13:04.331Z,21.00
2018-07-24T22:15:32.892Z,20.90
2018-07-24T22:18:01.510Z,20.90
2018-07-24T22:20:30.091Z,21.00
2018-07-24T22:22:58.664Z,21.00
2018-07-24T22:25:28.283Z,20.90
2018-07-24T22:27:57.120Z,20.90
2018-07-24T22:30:25.690Z,20.90
2018-07-24T22:32:54.341Z,20.90
2018-07-24T22:35:23.860Z,20.80
2018-07-24T22:37:52.551Z,20.70
2018-07-24T22:40:21.893Z,20.70
2018-07-24T22:42:50.556Z,20.70
2018-07-24T22:45:19.392Z,20.60
2018-07-24T22:47:49.337Z,20.70
2018-07-24T22:50:18.032Z,20.70
2018-07-24T22:52:46.972Z,20.60
2018-07-24T22:55:15.715Z,20.50
2018-07-24T22:57:44.311Z,20.40
2018-07-24T23:00:13.784Z,20.40
